sensor_id;sensor_type;location;lat;lon;timestamp;P1;durP1;ratioP1;P2;durP2;ratioP2
7316;SDS011;3699;51.462;6.696;2023-04-12T00:02:18;5.87;;;2.30;;
7316;SDS011;3699;51.462;6.696;2023-04-12T00:04:45;8.97;;;2.20;;
7316;SDS011;3699;51.462;6.696;2023-04-12T00:07:21;6.07;;;2.23;;
7316;SDS011;3699;51.462;6.696;2023-04-12T00:09:48;4.63;;;2.27;;
7316;SDS011;3699;51.462;6.696;2023-04-12T00:12:15;8.73;;;3.37;;
7316;SDS011;3699;51.462;6.696;2023-04-12T00:14:43;18.63;;;3.73;;
7316;SDS011;3699;51.462;6.696;2023-04-12T00:17:10;4.23;;;2.37;;
7316;SDS011;3699;51.462;6.696;2023-04-12T00:19:38;4.13;;;2.33;;
7316;SDS011;3699;51.462;6.696;2023-04-12T00:22:06;9.80;;;2.57;;
7316;SDS011;3699;51.462;6.696;2023-04-12T00:24:33;4.70;;;2.30;;
7316;SDS011;3699;51.462;6.696;2023-04-12T00:27:00;7.60;;;2.37;;
7316;SDS011;3699;51.462;6.696;2023-04-12T00:29:27;4.57;;;2.30;;
7316;SDS011;3699;51.462;6.696;2023-04-12T00:31:54;5.03;;;2.30;;
7316;SDS011;3699;51.462;6.696;2023-04-12T00:34:20;11.20;;;3.10;;
7316;SDS011;3699;51.462;6.696;2023-04-12T00:36:48;10.93;;;4.00;;
7316;SDS011;3699;51.462;6.696;2023-04-12T00:39:15;12.23;;;3.83;;
7316;SDS011;3699;51.462;6.696;2023-04-12T00:41:42;12.13;;;5.30;;
7316;SDS011;3699;51.462;6.696;2023-04-12T00:44:08;10.40;;;4.37;;
7316;SDS011;3699;51.462;6.696;2023-04-12T00:46:35;12.83;;;4.53;;
7316;SDS011;3699;51.462;6.696;2023-04-12T00:49:02;13.73;;;4.63;;
7316;SDS011;3699;51.462;6.696;2023-04-12T00:51:30;7.10;;;4.30;;
7316;SDS011;3699;51.462;6.696;2023-04-12T00:53:59;11.33;;;4.00;;
7316;SDS011;3699;51.462;6.696;2023-04-12T00:56:26;8.57;;;3.43;;
7316;SDS011;3699;51.462;6.696;2023-04-12T00:58:53;9.53;;;3.73;;
7316;SDS011;3699;51.462;6.696;2023-04-12T01:01:20;7.13;;;2.70;;
7316;SDS011;3699;51.462;6.696;2023-04-12T01:03:47;7.67;;;3.10;;
7316;SDS011;3699;51.462;6.696;2023-04-12T01:06:18;8.67;;;3.70;;
7316;SDS011;3699;51.462;6.696;2023-04-12T01:08:56;6.30;;;3.07;;
7316;SDS011;3699;51.462;6.696;2023-04-12T01:11:30;5.70;;;3.17;;
7316;SDS011;3699;51.462;6.696;2023-04-12T01:14:02;6.73;;;2.80;;
7316;SDS011;3699;51.462;6.696;2023-04-12T01:16:34;6.77;;;3.43;;
7316;SDS011;3699;51.462;6.696;2023-04-12T01:19:06;9.80;;;3.13;;
7316;SDS011;3699;51.462;6.696;2023-04-12T01:21:58;11.80;;;2.97;;
7316;SDS011;3699;51.462;6.696;2023-04-12T01:24:35;7.83;;;3.43;;
7316;SDS011;3699;51.462;6.696;2023-04-12T01:27:09;12.23;;;3.33;;
7316;SDS011;3699;51.462;6.696;2023-04-12T01:29:47;14.20;;;4.00;;
7316;SDS011;3699;51.462;6.696;2023-04-12T01:32:15;9.83;;;4.00;;
7316;SDS011;3699;51.462;6.696;2023-04-12T01:34:44;11.10;;;3.90;;
7316;SDS011;3699;51.462;6.696;2023-04-12T01:37:11;8.23;;;3.80;;
7316;SDS011;3699;51.462;6.696;2023-04-12T01:39:40;10.80;;;4.57;;
7316;SDS011;3699;51.462;6.696;2023-04-12T01:42:07;15.33;;;4.80;;
7316;SDS011;3699;51.462;6.696;2023-04-12T01:44:35;10.10;;;4.00;;
7316;SDS011;3699;51.462;6.696;2023-04-12T01:47:02;9.27;;;4.30;;
7316;SDS011;3699;51.462;6.696;2023-04-12T01:49:30;15.17;;;4.53;;
7316;SDS011;3699;51.462;6.696;2023-04-12T01:52:03;8.83;;;3.60;;
7316;SDS011;3699;51.462;6.696;2023-04-12T01:54:36;9.87;;;3.97;;
7316;SDS011;3699;51.462;6.696;2023-04-12T01:57:04;9.10;;;3.23;;
7316;SDS011;3699;51.462;6.696;2023-04-12T01:59:33;10.30;;;3.47;;
7316;SDS011;3699;51.462;6.696;2023-04-12T02:02:04;7.83;;;2.90;;
7316;SDS011;3699;51.462;6.696;2023-04-12T02:04:32;10.77;;;3.13;;
7316;SDS011;3699;51.462;6.696;2023-04-12T02:07:00;7.73;;;3.87;;
7316;SDS011;3699;51.462;6.696;2023-04-12T02:09:27;9.40;;;3.30;;
7316;SDS011;3699;51.462;6.696;2023-04-12T02:11:54;6.90;;;2.80;;
7316;SDS011;3699;51.462;6.696;2023-04-12T02:14:21;8.77;;;2.80;;
7316;SDS011;3699;51.462;6.696;2023-04-12T02:16:49;12.53;;;3.47;;
7316;SDS011;3699;51.462;6.696;2023-04-12T02:19:18;10.37;;;4.23;;
7316;SDS011;3699;51.462;6.696;2023-04-12T02:21:45;6.33;;;3.33;;
7316;SDS011;3699;51.462;6.696;2023-04-12T02:24:12;6.53;;;2.93;;
7316;SDS011;3699;51.462;6.696;2023-04-12T02:26:38;8.00;;;3.00;;
7316;SDS011;3699;51.462;6.696;2023-04-12T02:29:07;6.17;;;3.10;;
7316;SDS011;3699;51.462;6.696;2023-04-12T02:31:34;8.00;;;3.27;;
7316;SDS011;3699;51.462;6.696;2023-04-12T02:34:04;3.23;;;2.67;;
7316;SDS011;3699;51.462;6.696;2023-04-12T02:36:31;10.33;;;3.30;;
7316;SDS011;3699;51.462;6.696;2023-04-12T02:38:59;5.20;;;2.77;;
7316;SDS011;3699;51.462;6.696;2023-04-12T02:41:25;7.67;;;3.10;;
7316;SDS011;3699;51.462;6.696;2023-04-12T02:43:52;3.70;;;2.70;;
7316;SDS011;3699;51.462;6.696;2023-04-12T02:46:20;6.63;;;2.27;;
7316;SDS011;3699;51.462;6.696;2023-04-12T02:48:50;4.07;;;2.70;;
7316;SDS011;3699;51.462;6.696;2023-04-12T02:51:18;4.43;;;2.40;;
7316;SDS011;3699;51.462;6.696;2023-04-12T02:53:45;5.47;;;2.60;;
7316;SDS011;3699;51.462;6.696;2023-04-12T02:56:11;4.10;;;2.60;;
7316;SDS011;3699;51.462;6.696;2023-04-12T02:58:39;2.80;;;2.27;;
7316;SDS011;3699;51.462;6.696;2023-04-12T03:01:06;6.03;;;2.73;;
7316;SDS011;3699;51.462;6.696;2023-04-12T03:03:33;10.43;;;2.70;;
7316;SDS011;3699;51.462;6.696;2023-04-12T03:06:00;6.70;;;2.37;;
7316;SDS011;3699;51.462;6.696;2023-04-12T03:08:29;6.87;;;2.50;;
7316;SDS011;3699;51.462;6.696;2023-04-12T03:10:55;3.13;;;2.20;;
7316;SDS011;3699;51.462;6.696;2023-04-12T03:13:22;8.47;;;3.03;;
7316;SDS011;3699;51.462;6.696;2023-04-12T03:15:54;5.50;;;2.87;;
7316;SDS011;3699;51.462;6.696;2023-04-12T03:18:22;10.10;;;2.60;;
7316;SDS011;3699;51.462;6.696;2023-04-12T03:20:49;4.33;;;2.73;;
7316;SDS011;3699;51.462;6.696;2023-04-12T03:23:17;6.67;;;2.73;;
7316;SDS011;3699;51.462;6.696;2023-04-12T03:25:45;5.23;;;3.27;;
7316;SDS011;3699;51.462;6.696;2023-04-12T03:28:12;4.50;;;2.83;;
7316;SDS011;3699;51.462;6.696;2023-04-12T03:30:38;8.07;;;3.63;;
7316;SDS011;3699;51.462;6.696;2023-04-12T03:33:05;10.63;;;3.00;;
7316;SDS011;3699;51.462;6.696;2023-04-12T03:35:32;5.37;;;2.40;;
7316;SDS011;3699;51.462;6.696;2023-04-12T03:37:58;7.07;;;2.63;;
7316;SDS011;3699;51.462;6.696;2023-04-12T03:40:25;7.20;;;2.67;;
7316;SDS011;3699;51.462;6.696;2023-04-12T03:42:53;8.77;;;3.47;;
7316;SDS011;3699;51.462;6.696;2023-04-12T03:45:20;4.10;;;2.93;;
7316;SDS011;3699;51.462;6.696;2023-04-12T03:47:47;4.70;;;2.40;;
7316;SDS011;3699;51.462;6.696;2023-04-12T03:50:14;6.60;;;2.70;;
7316;SDS011;3699;51.462;6.696;2023-04-12T03:52:41;5.73;;;2.43;;
7316;SDS011;3699;51.462;6.696;2023-04-12T03:55:07;5.47;;;2.80;;
7316;SDS011;3699;51.462;6.696;2023-04-12T03:57:36;6.47;;;2.60;;
7316;SDS011;3699;51.462;6.696;2023-04-12T04:00:05;4.20;;;2.27;;
7316;SDS011;3699;51.462;6.696;2023-04-12T04:02:33;2.93;;;2.30;;
7316;SDS011;3699;51.462;6.696;2023-04-12T04:05:01;5.50;;;2.20;;
7316;SDS011;3699;51.462;6.696;2023-04-12T04:07:28;5.77;;;2.70;;
7316;SDS011;3699;51.462;6.696;2023-04-12T04:09:57;6.53;;;2.60;;
7316;SDS011;3699;51.462;6.696;2023-04-12T04:12:23;4.30;;;2.30;;
7316;SDS011;3699;51.462;6.696;2023-04-12T04:14:51;2.67;;;2.30;;
7316;SDS011;3699;51.462;6.696;2023-04-12T04:17:20;5.13;;;2.93;;
7316;SDS011;3699;51.462;6.696;2023-04-12T04:19:46;11.37;;;3.60;;
7316;SDS011;3699;51.462;6.696;2023-04-12T04:22:13;3.60;;;2.87;;
7316;SDS011;3699;51.462;6.696;2023-04-12T04:24:41;5.83;;;3.63;;
7316;SDS011;3699;51.462;6.696;2023-04-12T04:27:08;5.97;;;3.67;;
7316;SDS011;3699;51.462;6.696;2023-04-12T04:29:35;8.80;;;3.70;;
7316;SDS011;3699;51.462;6.696;2023-04-12T04:32:08;4.97;;;3.70;;
7316;SDS011;3699;51.462;6.696;2023-04-12T04:34:36;5.50;;;3.40;;
7316;SDS011;3699;51.462;6.696;2023-04-12T04:37:03;8.03;;;4.40;;
7316;SDS011;3699;51.462;6.696;2023-04-12T04:39:30;5.60;;;4.03;;
7316;SDS011;3699;51.462;6.696;2023-04-12T04:41:57;4.63;;;3.80;;
7316;SDS011;3699;51.462;6.696;2023-04-12T04:44:23;5.27;;;3.90;;
7316;SDS011;3699;51.462;6.696;2023-04-12T04:46:50;9.03;;;3.97;;
7316;SDS011;3699;51.462;6.696;2023-04-12T04:49:17;7.93;;;4.40;;
7316;SDS011;3699;51.462;6.696;2023-04-12T04:51:45;7.10;;;5.70;;
7316;SDS011;3699;51.462;6.696;2023-04-12T04:54:12;7.07;;;3.80;;
7316;SDS011;3699;51.462;6.696;2023-04-12T04:56:40;6.80;;;4.30;;
7316;SDS011;3699;51.462;6.696;2023-04-12T04:59:07;5.20;;;3.80;;
7316;SDS011;3699;51.462;6.696;2023-04-12T05:01:34;9.13;;;4.20;;
7316;SDS011;3699;51.462;6.696;2023-04-12T05:04:01;8.60;;;3.83;;
7316;SDS011;3699;51.462;6.696;2023-04-12T05:06:28;4.30;;;3.30;;
7316;SDS011;3699;51.462;6.696;2023-04-12T05:08:56;7.47;;;2.93;;
7316;SDS011;3699;51.462;6.696;2023-04-12T05:11:25;6.17;;;3.33;;
7316;SDS011;3699;51.462;6.696;2023-04-12T05:13:52;6.40;;;4.40;;
7316;SDS011;3699;51.462;6.696;2023-04-12T05:16:19;9.73;;;4.17;;
7316;SDS011;3699;51.462;6.696;2023-04-12T05:18:45;8.67;;;3.83;;
7316;SDS011;3699;51.462;6.696;2023-04-12T05:21:12;6.27;;;3.80;;
7316;SDS011;3699;51.462;6.696;2023-04-12T05:23:41;6.17;;;3.77;;
7316;SDS011;3699;51.462;6.696;2023-04-12T05:26:12;3.90;;;3.20;;
7316;SDS011;3699;51.462;6.696;2023-04-12T05:28:38;8.57;;;3.30;;
7316;SDS011;3699;51.462;6.696;2023-04-12T05:31:05;9.30;;;3.57;;
7316;SDS011;3699;51.462;6.696;2023-04-12T05:33:32;4.80;;;3.17;;
7316;SDS011;3699;51.462;6.696;2023-04-12T05:36:00;6.63;;;3.87;;
7316;SDS011;3699;51.462;6.696;2023-04-12T05:38:27;14.93;;;4.27;;
7316;SDS011;3699;51.462;6.696;2023-04-12T05:40:54;6.30;;;3.57;;
7316;SDS011;3699;51.462;6.696;2023-04-12T05:43:22;5.63;;;4.60;;
7316;SDS011;3699;51.462;6.696;2023-04-12T05:45:49;9.93;;;3.70;;
7316;SDS011;3699;51.462;6.696;2023-04-12T05:48:16;6.87;;;3.67;;
7316;SDS011;3699;51.462;6.696;2023-04-12T05:50:49;6.60;;;3.83;;
7316;SDS011;3699;51.462;6.696;2023-04-12T05:53:16;5.37;;;4.63;;
7316;SDS011;3699;51.462;6.696;2023-04-12T05:55:43;6.90;;;3.87;;
7316;SDS011;3699;51.462;6.696;2023-04-12T05:58:09;5.20;;;3.40;;
7316;SDS011;3699;51.462;6.696;2023-04-12T06:00:38;6.67;;;3.83;;
7316;SDS011;3699;51.462;6.696;2023-04-12T06:03:06;5.67;;;3.50;;
7316;SDS011;3699;51.462;6.696;2023-04-12T06:05:33;5.87;;;3.53;;
7316;SDS011;3699;51.462;6.696;2023-04-12T06:08:00;5.83;;;3.80;;
7316;SDS011;3699;51.462;6.696;2023-04-12T06:10:29;5.43;;;3.53;;
7316;SDS011;3699;51.462;6.696;2023-04-12T06:12:56;8.40;;;4.10;;
7316;SDS011;3699;51.462;6.696;2023-04-12T06:15:23;7.03;;;3.80;;
7316;SDS011;3699;51.462;6.696;2023-04-12T06:17:51;4.53;;;3.80;;
7316;SDS011;3699;51.462;6.696;2023-04-12T06:20:18;8.20;;;3.73;;
7316;SDS011;3699;51.462;6.696;2023-04-12T06:22:45;3.83;;;3.20;;
7316;SDS011;3699;51.462;6.696;2023-04-12T06:25:11;6.63;;;3.73;;
7316;SDS011;3699;51.462;6.696;2023-04-12T06:27:39;7.17;;;3.47;;
7316;SDS011;3699;51.462;6.696;2023-04-12T06:30:06;9.07;;;3.70;;
7316;SDS011;3699;51.462;6.696;2023-04-12T06:32:33;5.37;;;3.27;;
7316;SDS011;3699;51.462;6.696;2023-04-12T06:35:03;6.00;;;3.60;;
7316;SDS011;3699;51.462;6.696;2023-04-12T06:37:31;7.57;;;4.60;;
7316;SDS011;3699;51.462;6.696;2023-04-12T06:39:57;6.70;;;4.00;;
7316;SDS011;3699;51.462;6.696;2023-04-12T06:42:24;6.63;;;3.33;;
7316;SDS011;3699;51.462;6.696;2023-04-12T06:44:51;6.13;;;3.70;;
7316;SDS011;3699;51.462;6.696;2023-04-12T06:47:17;5.47;;;3.70;;
7316;SDS011;3699;51.462;6.696;2023-04-12T06:49:44;5.23;;;3.87;;
7316;SDS011;3699;51.462;6.696;2023-04-12T06:52:12;8.20;;;4.07;;
7316;SDS011;3699;51.462;6.696;2023-04-12T06:54:39;6.47;;;4.57;;
7316;SDS011;3699;51.462;6.696;2023-04-12T06:57:07;6.00;;;3.50;;
7316;SDS011;3699;51.462;6.696;2023-04-12T06:59:35;5.37;;;3.50;;
7316;SDS011;3699;51.462;6.696;2023-04-12T07:02:02;7.63;;;3.63;;
7316;SDS011;3699;51.462;6.696;2023-04-12T07:04:30;6.80;;;3.67;;
7316;SDS011;3699;51.462;6.696;2023-04-12T07:06:57;5.87;;;3.80;;
7316;SDS011;3699;51.462;6.696;2023-04-12T07:09:25;8.03;;;4.03;;
7316;SDS011;3699;51.462;6.696;2023-04-12T07:11:52;6.00;;;3.70;;
7316;SDS011;3699;51.462;6.696;2023-04-12T07:14:19;5.80;;;4.03;;
7316;SDS011;3699;51.462;6.696;2023-04-12T07:16:45;6.47;;;4.30;;
7316;SDS011;3699;51.462;6.696;2023-04-12T07:19:12;6.00;;;4.30;;
7316;SDS011;3699;51.462;6.696;2023-04-12T07:21:39;7.23;;;4.00;;
7316;SDS011;3699;51.462;6.696;2023-04-12T07:24:05;6.03;;;4.17;;
7316;SDS011;3699;51.462;6.696;2023-04-12T07:26:34;6.07;;;3.80;;
7316;SDS011;3699;51.462;6.696;2023-04-12T07:29:00;5.50;;;4.57;;
7316;SDS011;3699;51.462;6.696;2023-04-12T07:31:27;4.63;;;3.70;;
7316;SDS011;3699;51.462;6.696;2023-04-12T07:33:55;5.43;;;3.77;;
7316;SDS011;3699;51.462;6.696;2023-04-12T07:36:22;4.90;;;4.13;;
7316;SDS011;3699;51.462;6.696;2023-04-12T07:38:48;7.13;;;4.23;;
7316;SDS011;3699;51.462;6.696;2023-04-12T07:41:20;7.37;;;4.37;;
7316;SDS011;3699;51.462;6.696;2023-04-12T07:43:48;5.73;;;4.27;;
7316;SDS011;3699;51.462;6.696;2023-04-12T07:46:16;5.73;;;4.30;;
7316;SDS011;3699;51.462;6.696;2023-04-12T07:48:43;6.93;;;4.50;;
7316;SDS011;3699;51.462;6.696;2023-04-12T07:51:12;7.77;;;4.83;;
7316;SDS011;3699;51.462;6.696;2023-04-12T07:53:39;6.23;;;4.70;;
7316;SDS011;3699;51.462;6.696;2023-04-12T07:56:06;5.00;;;4.33;;
7316;SDS011;3699;51.462;6.696;2023-04-12T08:01:11;6.60;;;5.23;;
7316;SDS011;3699;51.462;6.696;2023-04-12T08:03:38;5.53;;;4.10;;
7316;SDS011;3699;51.462;6.696;2023-04-12T08:06:05;9.93;;;5.33;;
7316;SDS011;3699;51.462;6.696;2023-04-12T08:08:32;10.80;;;5.90;;
7316;SDS011;3699;51.462;6.696;2023-04-12T08:10:59;6.40;;;5.10;;
7316;SDS011;3699;51.462;6.696;2023-04-12T08:15:57;8.63;;;5.90;;
7316;SDS011;3699;51.462;6.696;2023-04-12T08:18:25;7.93;;;5.90;;
7316;SDS011;3699;51.462;6.696;2023-04-12T08:20:53;8.73;;;6.27;;
7316;SDS011;3699;51.462;6.696;2023-04-12T08:23:20;12.27;;;5.60;;
7316;SDS011;3699;51.462;6.696;2023-04-12T08:25:47;10.33;;;6.57;;
7316;SDS011;3699;51.462;6.696;2023-04-12T08:28:14;9.70;;;6.70;;
7316;SDS011;3699;51.462;6.696;2023-04-12T08:30:41;8.90;;;6.80;;
7316;SDS011;3699;51.462;6.696;2023-04-12T08:33:08;9.83;;;6.87;;
7316;SDS011;3699;51.462;6.696;2023-04-12T08:35:37;9.77;;;7.00;;
7316;SDS011;3699;51.462;6.696;2023-04-12T08:38:04;11.40;;;6.77;;
7316;SDS011;3699;51.462;6.696;2023-04-12T08:40:31;7.93;;;6.43;;
7316;SDS011;3699;51.462;6.696;2023-04-12T08:42:59;8.70;;;6.47;;
7316;SDS011;3699;51.462;6.696;2023-04-12T08:45:27;8.30;;;6.67;;
7316;SDS011;3699;51.462;6.696;2023-04-12T08:47:54;8.67;;;6.80;;
7316;SDS011;3699;51.462;6.696;2023-04-12T08:50:21;12.13;;;7.20;;
7316;SDS011;3699;51.462;6.696;2023-04-12T08:52:50;9.13;;;7.10;;
7316;SDS011;3699;51.462;6.696;2023-04-12T08:55:18;12.93;;;8.80;;
7316;SDS011;3699;51.462;6.696;2023-04-12T08:57:45;13.73;;;8.73;;
7316;SDS011;3699;51.462;6.696;2023-04-12T09:00:13;13.63;;;9.00;;
7316;SDS011;3699;51.462;6.696;2023-04-12T09:02:40;13.47;;;8.43;;
7316;SDS011;3699;51.462;6.696;2023-04-12T09:05:10;14.23;;;8.33;;
7316;SDS011;3699;51.462;6.696;2023-04-12T09:07:38;13.13;;;8.97;;
7316;SDS011;3699;51.462;6.696;2023-04-12T09:10:07;10.87;;;8.50;;
7316;SDS011;3699;51.462;6.696;2023-04-12T09:12:34;13.50;;;9.33;;
7316;SDS011;3699;51.462;6.696;2023-04-12T09:15:10;11.17;;;7.03;;
7316;SDS011;3699;51.462;6.696;2023-04-12T09:17:38;9.90;;;5.23;;
7316;SDS011;3699;51.462;6.696;2023-04-12T09:20:20;6.57;;;5.03;;
7316;SDS011;3699;51.462;6.696;2023-04-12T09:22:49;5.67;;;4.93;;
7316;SDS011;3699;51.462;6.696;2023-04-12T09:25:32;6.70;;;5.10;;
7316;SDS011;3699;51.462;6.696;2023-04-12T09:28:01;6.57;;;4.90;;
7316;SDS011;3699;51.462;6.696;2023-04-12T09:30:29;6.13;;;5.53;;
7316;SDS011;3699;51.462;6.696;2023-04-12T09:33:09;5.97;;;5.33;;
7316;SDS011;3699;51.462;6.696;2023-04-12T09:35:36;7.53;;;6.73;;
7316;SDS011;3699;51.462;6.696;2023-04-12T09:38:06;6.27;;;5.67;;
7316;SDS011;3699;51.462;6.696;2023-04-12T09:40:34;8.10;;;5.70;;
7316;SDS011;3699;51.462;6.696;2023-04-12T09:43:02;8.27;;;5.93;;
7316;SDS011;3699;51.462;6.696;2023-04-12T09:45:32;6.80;;;5.90;;
7316;SDS011;3699;51.462;6.696;2023-04-12T09:47:59;7.77;;;6.00;;
7316;SDS011;3699;51.462;6.696;2023-04-12T09:50:27;7.23;;;6.53;;
7316;SDS011;3699;51.462;6.696;2023-04-12T09:52:57;8.33;;;6.90;;
7316;SDS011;3699;51.462;6.696;2023-04-12T09:55:26;7.17;;;5.73;;
7316;SDS011;3699;51.462;6.696;2023-04-12T09:57:54;6.20;;;4.63;;
7316;SDS011;3699;51.462;6.696;2023-04-12T10:00:22;4.10;;;3.53;;
7316;SDS011;3699;51.462;6.696;2023-04-12T10:02:51;4.80;;;3.23;;
7316;SDS011;3699;51.462;6.696;2023-04-12T10:05:18;2.80;;;2.60;;
7316;SDS011;3699;51.462;6.696;2023-04-12T10:07:46;3.30;;;3.00;;
7316;SDS011;3699;51.462;6.696;2023-04-12T10:10:14;3.27;;;2.70;;
7316;SDS011;3699;51.462;6.696;2023-04-12T10:12:43;2.77;;;2.53;;
7316;SDS011;3699;51.462;6.696;2023-04-12T10:15:12;2.87;;;2.50;;
7316;SDS011;3699;51.462;6.696;2023-04-12T10:17:41;2.70;;;2.50;;
7316;SDS011;3699;51.462;6.696;2023-04-12T10:20:09;2.40;;;2.20;;
7316;SDS011;3699;51.462;6.696;2023-04-12T10:22:37;1.90;;;1.80;;
7316;SDS011;3699;51.462;6.696;2023-04-12T10:25:08;2.30;;;1.83;;
7316;SDS011;3699;51.462;6.696;2023-04-12T10:27:36;4.00;;;1.80;;
7316;SDS011;3699;51.462;6.696;2023-04-12T10:30:19;3.50;;;1.53;;
7316;SDS011;3699;51.462;6.696;2023-04-12T10:35:54;6.17;;;2.63;;
7316;SDS011;3699;51.462;6.696;2023-04-12T10:38:24;4.43;;;1.60;;
7316;SDS011;3699;51.462;6.696;2023-04-12T10:41:11;5.93;;;3.03;;
7316;SDS011;3699;51.462;6.696;2023-04-12T10:43:39;4.53;;;1.97;;
7316;SDS011;3699;51.462;6.696;2023-04-12T10:46:08;6.67;;;2.13;;
7316;SDS011;3699;51.462;6.696;2023-04-12T10:49:15;7.10;;;2.87;;
7316;SDS011;3699;51.462;6.696;2023-04-12T10:54:36;5.77;;;2.00;;
7316;SDS011;3699;51.462;6.696;2023-04-12T10:57:03;7.13;;;2.60;;
7316;SDS011;3699;51.462;6.696;2023-04-12T11:02:21;4.93;;;2.77;;
7316;SDS011;3699;51.462;6.696;2023-04-12T11:05:03;7.43;;;2.37;;
7316;SDS011;3699;51.462;6.696;2023-04-12T11:07:37;6.97;;;2.80;;
7316;SDS011;3699;51.462;6.696;2023-04-12T11:10:06;9.93;;;2.57;;
7316;SDS011;3699;51.462;6.696;2023-04-12T11:12:38;8.10;;;2.70;;
7316;SDS011;3699;51.462;6.696;2023-04-12T11:15:09;9.97;;;2.50;;
7316;SDS011;3699;51.462;6.696;2023-04-12T11:17:39;7.77;;;2.40;;
7316;SDS011;3699;51.462;6.696;2023-04-12T11:20:09;11.80;;;2.70;;
7316;SDS011;3699;51.462;6.696;2023-04-12T11:22:36;8.03;;;2.60;;
7316;SDS011;3699;51.462;6.696;2023-04-12T11:25:04;8.20;;;2.80;;
7316;SDS011;3699;51.462;6.696;2023-04-12T11:27:31;7.57;;;2.30;;
7316;SDS011;3699;51.462;6.696;2023-04-12T11:29:59;6.53;;;2.30;;
7316;SDS011;3699;51.462;6.696;2023-04-12T11:32:27;10.00;;;2.60;;
7316;SDS011;3699;51.462;6.696;2023-04-12T11:34:56;10.47;;;3.73;;
7316;SDS011;3699;51.462;6.696;2023-04-12T11:37:24;8.83;;;2.90;;
7316;SDS011;3699;51.462;6.696;2023-04-12T11:39:52;9.97;;;3.80;;
7316;SDS011;3699;51.462;6.696;2023-04-12T11:42:22;7.10;;;2.90;;
7316;SDS011;3699;51.462;6.696;2023-04-12T11:44:50;3.00;;;2.40;;
7316;SDS011;3699;51.462;6.696;2023-04-12T11:47:18;7.33;;;3.00;;
7316;SDS011;3699;51.462;6.696;2023-04-12T11:49:48;8.57;;;3.63;;
7316;SDS011;3699;51.462;6.696;2023-04-12T11:52:17;11.60;;;2.90;;
7316;SDS011;3699;51.462;6.696;2023-04-12T11:54:46;4.23;;;2.10;;
7316;SDS011;3699;51.462;6.696;2023-04-12T11:57:14;11.07;;;3.03;;
7316;SDS011;3699;51.462;6.696;2023-04-12T11:59:42;6.00;;;2.97;;
7316;SDS011;3699;51.462;6.696;2023-04-12T12:02:10;7.40;;;2.60;;
7316;SDS011;3699;51.462;6.696;2023-04-12T12:04:38;6.03;;;2.50;;
7316;SDS011;3699;51.462;6.696;2023-04-12T12:07:06;12.27;;;3.70;;
7316;SDS011;3699;51.462;6.696;2023-04-12T12:09:35;6.27;;;2.63;;
7316;SDS011;3699;51.462;6.696;2023-04-12T12:12:01;5.73;;;2.33;;
7316;SDS011;3699;51.462;6.696;2023-04-12T12:14:31;10.03;;;3.00;;
7316;SDS011;3699;51.462;6.696;2023-04-12T12:16:59;5.73;;;2.40;;
7316;SDS011;3699;51.462;6.696;2023-04-12T12:19:30;5.47;;;2.43;;
7316;SDS011;3699;51.462;6.696;2023-04-12T12:24:50;7.23;;;2.30;;
7316;SDS011;3699;51.462;6.696;2023-04-12T12:27:18;10.83;;;2.83;;
7316;SDS011;3699;51.462;6.696;2023-04-12T12:29:48;3.80;;;2.10;;
7316;SDS011;3699;51.462;6.696;2023-04-12T12:32:17;7.03;;;2.70;;
7316;SDS011;3699;51.462;6.696;2023-04-12T12:34:49;8.57;;;2.83;;
7316;SDS011;3699;51.462;6.696;2023-04-12T12:37:18;5.67;;;2.10;;
7316;SDS011;3699;51.462;6.696;2023-04-12T12:40:02;6.87;;;2.40;;
7316;SDS011;3699;51.462;6.696;2023-04-12T12:42:35;7.03;;;2.80;;
7316;SDS011;3699;51.462;6.696;2023-04-12T12:45:09;9.40;;;2.57;;
7316;SDS011;3699;51.462;6.696;2023-04-12T12:47:43;12.70;;;3.07;;
7316;SDS011;3699;51.462;6.696;2023-04-12T12:50:14;5.17;;;2.43;;
7316;SDS011;3699;51.462;6.696;2023-04-12T12:52:42;6.77;;;2.47;;
7316;SDS011;3699;51.462;6.696;2023-04-12T12:55:11;7.70;;;2.90;;
7316;SDS011;3699;51.462;6.696;2023-04-12T12:57:38;5.80;;;2.73;;
7316;SDS011;3699;51.462;6.696;2023-04-12T13:00:05;6.30;;;3.07;;
7316;SDS011;3699;51.462;6.696;2023-04-12T13:02:34;9.17;;;3.50;;
7316;SDS011;3699;51.462;6.696;2023-04-12T13:05:02;5.50;;;3.23;;
7316;SDS011;3699;51.462;6.696;2023-04-12T13:07:29;5.33;;;2.83;;
7316;SDS011;3699;51.462;6.696;2023-04-12T13:09:56;5.60;;;2.87;;
7316;SDS011;3699;51.462;6.696;2023-04-12T13:12:24;8.13;;;3.33;;
7316;SDS011;3699;51.462;6.696;2023-04-12T13:14:51;10.60;;;4.57;;
7316;SDS011;3699;51.462;6.696;2023-04-12T13:17:18;7.70;;;3.53;;
7316;SDS011;3699;51.462;6.696;2023-04-12T13:19:45;11.10;;;3.87;;
7316;SDS011;3699;51.462;6.696;2023-04-12T13:22:12;8.67;;;3.93;;
7316;SDS011;3699;51.462;6.696;2023-04-12T13:24:39;10.53;;;4.10;;
7316;SDS011;3699;51.462;6.696;2023-04-12T13:27:06;10.77;;;3.87;;
7316;SDS011;3699;51.462;6.696;2023-04-12T13:29:34;9.37;;;3.93;;
7316;SDS011;3699;51.462;6.696;2023-04-12T13:32:01;12.13;;;4.90;;
7316;SDS011;3699;51.462;6.696;2023-04-12T13:34:29;10.77;;;4.30;;
7316;SDS011;3699;51.462;6.696;2023-04-12T13:39:26;9.93;;;4.00;;
7316;SDS011;3699;51.462;6.696;2023-04-12T13:41:53;9.53;;;3.63;;
7316;SDS011;3699;51.462;6.696;2023-04-12T13:44:20;13.00;;;4.40;;
7316;SDS011;3699;51.462;6.696;2023-04-12T13:46:48;12.77;;;4.47;;
7316;SDS011;3699;51.462;6.696;2023-04-12T13:49:15;9.27;;;4.70;;
7316;SDS011;3699;51.462;6.696;2023-04-12T13:51:44;9.40;;;4.50;;
7316;SDS011;3699;51.462;6.696;2023-04-12T13:54:11;11.40;;;4.97;;
7316;SDS011;3699;51.462;6.696;2023-04-12T13:56:39;11.40;;;5.80;;
7316;SDS011;3699;51.462;6.696;2023-04-12T13:59:06;11.20;;;4.50;;
7316;SDS011;3699;51.462;6.696;2023-04-12T14:01:33;9.83;;;5.23;;
7316;SDS011;3699;51.462;6.696;2023-04-12T14:04:01;14.13;;;4.77;;
7316;SDS011;3699;51.462;6.696;2023-04-12T14:06:28;9.37;;;3.87;;
7316;SDS011;3699;51.462;6.696;2023-04-12T14:08:55;9.43;;;4.30;;
7316;SDS011;3699;51.462;6.696;2023-04-12T14:11:22;7.93;;;3.80;;
7316;SDS011;3699;51.462;6.696;2023-04-12T14:13:49;9.03;;;4.03;;
7316;SDS011;3699;51.462;6.696;2023-04-12T14:16:16;7.07;;;4.03;;
7316;SDS011;3699;51.462;6.696;2023-04-12T14:18:43;9.90;;;4.53;;
7316;SDS011;3699;51.462;6.696;2023-04-12T14:21:11;11.17;;;3.60;;
7316;SDS011;3699;51.462;6.696;2023-04-12T14:23:38;10.07;;;4.00;;
7316;SDS011;3699;51.462;6.696;2023-04-12T14:26:06;10.97;;;4.10;;
7316;SDS011;3699;51.462;6.696;2023-04-12T14:28:33;12.87;;;4.40;;
7316;SDS011;3699;51.462;6.696;2023-04-12T14:31:00;7.80;;;3.23;;
7316;SDS011;3699;51.462;6.696;2023-04-12T14:33:27;14.00;;;4.27;;
7316;SDS011;3699;51.462;6.696;2023-04-12T14:35:54;8.33;;;3.37;;
7316;SDS011;3699;51.462;6.696;2023-04-12T14:38:23;7.43;;;3.47;;
7316;SDS011;3699;51.462;6.696;2023-04-12T14:40:49;8.63;;;3.30;;
7316;SDS011;3699;51.462;6.696;2023-04-12T14:43:18;10.07;;;4.23;;
7316;SDS011;3699;51.462;6.696;2023-04-12T14:45:45;7.17;;;3.43;;
7316;SDS011;3699;51.462;6.696;2023-04-12T14:51:33;5.60;;;3.67;;
7316;SDS011;3699;51.462;6.696;2023-04-12T14:54:01;6.90;;;2.70;;
7316;SDS011;3699;51.462;6.696;2023-04-12T14:56:28;5.00;;;3.00;;
7316;SDS011;3699;51.462;6.696;2023-04-12T14:58:55;4.90;;;2.90;;
7316;SDS011;3699;51.462;6.696;2023-04-12T15:01:22;7.33;;;2.93;;
7316;SDS011;3699;51.462;6.696;2023-04-12T15:03:50;7.10;;;3.40;;
7316;SDS011;3699;51.462;6.696;2023-04-12T15:06:16;4.83;;;3.50;;
7316;SDS011;3699;51.462;6.696;2023-04-12T15:08:44;4.37;;;2.97;;
7316;SDS011;3699;51.462;6.696;2023-04-12T15:11:15;5.70;;;2.60;;
7316;SDS011;3699;51.462;6.696;2023-04-12T15:13:43;5.63;;;3.10;;
7316;SDS011;3699;51.462;6.696;2023-04-12T15:16:09;3.23;;;2.60;;
7316;SDS011;3699;51.462;6.696;2023-04-12T15:18:38;4.23;;;2.27;;
7316;SDS011;3699;51.462;6.696;2023-04-12T15:21:06;3.90;;;2.40;;
7316;SDS011;3699;51.462;6.696;2023-04-12T15:23:34;5.27;;;2.00;;
7316;SDS011;3699;51.462;6.696;2023-04-12T15:26:01;5.13;;;1.70;;
7316;SDS011;3699;51.462;6.696;2023-04-12T15:28:31;2.10;;;1.30;;
7316;SDS011;3699;51.462;6.696;2023-04-12T15:30:58;1.97;;;1.20;;
7316;SDS011;3699;51.462;6.696;2023-04-12T15:33:26;1.60;;;1.50;;
7316;SDS011;3699;51.462;6.696;2023-04-12T15:35:53;2.33;;;1.57;;
7316;SDS011;3699;51.462;6.696;2023-04-12T15:38:22;1.97;;;1.60;;
7316;SDS011;3699;51.462;6.696;2023-04-12T15:40:52;2.77;;;1.40;;
7316;SDS011;3699;51.462;6.696;2023-04-12T15:43:19;1.20;;;1.10;;